createdAt,value
2022-12-11T00:00:29.237Z,13.68
2022-12-11T00:02:56.772Z,15.32
2022-12-11T00:05:24.100Z,15.63
2022-12-11T00:07:50.879Z,14.20
2022-12-11T00:10:17.837Z,15.88
2022-12-11T00:12:44.487Z,15.30
2022-12-11T00:15:11.517Z,17.05
2022-12-11T00:17:38.612Z,15.50
2022-12-11T00:20:06.545Z,15.95
2022-12-11T00:22:33.991Z,14.80
2022-12-11T00:25:00.799Z,13.60
2022-12-11T00:27:27.670Z,15.18
2022-12-11T00:29:54.312Z,16.23
2022-12-11T00:32:21.116Z,15.40
2022-12-11T00:34:47.841Z,15.98
2022-12-11T00:37:14.802Z,16.25
2022-12-11T00:39:41.538Z,17.17
2022-12-11T00:42:09.079Z,16.02
2022-12-11T00:44:39.442Z,15.63
2022-12-11T00:47:06.222Z,15.75
2022-12-11T00:49:33.018Z,16.20
2022-12-11T00:51:59.838Z,14.85
2022-12-11T00:54:26.634Z,15.10
2022-12-11T00:56:56.381Z,16.05
2022-12-11T00:59:23.041Z,14.40
2022-12-11T01:01:49.715Z,14.07
2022-12-11T01:04:16.443Z,14.45
2022-12-11T01:06:43.086Z,13.93
2022-12-11T01:09:28.314Z,14.90
2022-12-11T01:11:55.025Z,14.77
2022-12-11T01:14:21.875Z,14.75
2022-12-11T01:16:48.607Z,15.20
2022-12-11T01:19:17.444Z,15.70
2022-12-11T01:21:44.213Z,15.30
2022-12-11T01:24:10.897Z,13.85
2022-12-11T01:26:37.507Z,14.68
2022-12-11T01:29:04.237Z,15.40
2022-12-11T01:31:31.038Z,14.48
2022-12-11T01:33:57.741Z,14.43
2022-12-11T01:36:25.040Z,14.25
2022-12-11T01:38:53.568Z,13.70
2022-12-11T01:41:21.867Z,14.98
2022-12-11T01:44:27.914Z,14.70
2022-12-11T01:46:55.155Z,14.77
2022-12-11T01:49:27.885Z,13.48
2022-12-11T01:52:11.316Z,14.20
2022-12-11T01:54:38.475Z,15.70
2022-12-11T01:57:11.081Z,15.60
2022-12-11T01:59:44.603Z,16.08
2022-12-11T02:02:33.905Z,14.98
2022-12-11T02:05:05.552Z,14.00
2022-12-11T02:07:46.349Z,14.15
2022-12-11T02:10:14.316Z,14.32
2022-12-11T02:12:57.594Z,15.70
2022-12-11T02:15:54.506Z,14.73
2022-12-11T02:18:48.649Z,14.50
2022-12-11T02:21:50.956Z,14.10
2022-12-11T02:24:57.858Z,14.23
2022-12-11T02:27:40.690Z,13.80
2022-12-11T02:30:13.902Z,13.75
2022-12-11T02:32:57.959Z,15.02
2022-12-11T02:35:47.470Z,14.95
2022-12-11T02:38:31.115Z,13.50
2022-12-11T02:41:02.644Z,14.20
2022-12-11T02:43:34.205Z,15.07
2022-12-11T02:46:04.582Z,13.73
2022-12-11T02:48:35.980Z,14.70
2022-12-11T02:51:09.349Z,14.48
2022-12-11T02:53:44.038Z,14.32
2022-12-11T02:56:21.039Z,16.48
2022-12-11T02:59:00.146Z,14.43
2022-12-11T03:01:28.008Z,14.45
2022-12-11T03:03:58.154Z,14.43
2022-12-11T03:06:36.645Z,14.85
2022-12-11T03:09:07.095Z,14.63
2022-12-11T03:11:36.854Z,14.75
2022-12-11T03:14:04.803Z,15.07
2022-12-11T03:16:59.712Z,14.32
2022-12-11T03:19:55.300Z,14.25
2022-12-11T03:23:18.222Z,13.77
2022-12-11T03:25:59.437Z,14.43
2022-12-11T03:28:46.333Z,15.07
2022-12-11T03:31:31.734Z,15.15
2022-12-11T03:34:10.526Z,16.48
2022-12-11T03:36:40.194Z,17.15
2022-12-11T03:39:22.256Z,18.77
2022-12-11T03:41:53.527Z,17.38
2022-12-11T03:44:22.692Z,19.10
2022-12-11T03:46:56.227Z,17.48
2022-12-11T03:49:37.051Z,16.55
2022-12-11T03:52:07.589Z,17.58
2022-12-11T03:54:35.499Z,17.40
2022-12-11T03:57:08.321Z,16.63
2022-12-11T03:59:37.771Z,18.13
2022-12-11T04:02:10.909Z,15.63
2022-12-11T04:04:42.708Z,14.15
2022-12-11T04:07:10.041Z,16.35
2022-12-11T04:09:37.920Z,16.90
2022-12-11T04:12:08.259Z,15.63
2022-12-11T04:14:53.381Z,16.55
2022-12-11T04:17:38.399Z,16.45
2022-12-11T04:20:25.743Z,15.23
2022-12-11T04:23:11.026Z,15.10
2022-12-11T04:25:37.665Z,14.98
2022-12-11T04:28:04.456Z,14.68
2022-12-11T04:30:34.383Z,15.15
2022-12-11T04:33:02.064Z,14.57
2022-12-11T04:35:29.324Z,15.50
2022-12-11T04:37:56.229Z,14.90
2022-12-11T04:40:23.105Z,16.35
2022-12-11T04:42:49.782Z,16.25
2022-12-11T04:45:16.762Z,14.98
2022-12-11T04:47:43.899Z,14.55
2022-12-11T04:50:14.473Z,14.68
2022-12-11T04:52:42.548Z,16.20
2022-12-11T04:55:11.569Z,14.90
2022-12-11T04:57:39.664Z,15.13
2022-12-11T05:00:11.359Z,13.27
2022-12-11T05:02:42.806Z,15.23
2022-12-11T05:05:11.961Z,15.23
2022-12-11T05:07:39.079Z,14.73
2022-12-11T05:10:07.472Z,15.73
2022-12-11T05:12:34.426Z,14.38
2022-12-11T05:15:01.115Z,13.82
2022-12-11T05:17:27.791Z,15.80
2022-12-11T05:19:54.663Z,15.07
2022-12-11T05:22:21.374Z,15.63
2022-12-11T05:24:47.984Z,14.90
2022-12-11T05:27:14.726Z,14.98
2022-12-11T05:29:43.493Z,15.30
2022-12-11T05:32:10.258Z,14.73
2022-12-11T05:34:37.203Z,16.35
2022-12-11T05:37:04.084Z,15.73
2022-12-11T05:39:30.863Z,15.88
2022-12-11T05:41:57.972Z,15.38
2022-12-11T05:44:25.057Z,15.02
2022-12-11T05:46:51.911Z,16.15
2022-12-11T05:49:20.152Z,15.10
2022-12-11T05:51:49.660Z,15.55
2022-12-11T05:54:16.472Z,16.10
2022-12-11T05:56:43.313Z,15.13
2022-12-11T05:59:10.493Z,15.45
2022-12-11T06:01:43.430Z,14.70
2022-12-11T06:04:14.449Z,15.32
2022-12-11T06:12:08.639Z,14.75
2022-12-11T07:54:40.851Z,18.70
2022-12-11T08:54:59.099Z,17.98
2022-12-11T08:57:27.498Z,18.60
2022-12-11T08:59:54.414Z,18.73
2022-12-11T09:02:21.225Z,19.35
2022-12-11T09:05:12.922Z,19.80
2022-12-11T09:07:39.907Z,17.08
2022-12-11T09:10:16.101Z,18.10
2022-12-11T09:12:43.736Z,18.00
2022-12-11T09:15:11.955Z,18.35
2022-12-11T09:18:36.522Z,19.23
2022-12-11T09:21:23.793Z,17.98
2022-12-11T10:31:55.902Z,14.25
2022-12-11T10:34:50.633Z,13.57
2022-12-11T10:37:42.692Z,13.07
2022-12-11T10:40:38.688Z,14.18
2022-12-11T10:45:55.146Z,14.32
2022-12-11T10:48:56.665Z,15.20
2022-12-11T10:51:42.019Z,15.20
2022-12-11T10:54:39.946Z,17.88
2022-12-11T10:57:30.229Z,16.52
2022-12-11T11:00:00.800Z,15.30
2022-12-11T11:02:41.544Z,14.57
2022-12-11T11:05:35.907Z,16.50
2022-12-11T11:08:16.234Z,16.08
2022-12-11T11:11:06.011Z,15.48
2022-12-11T11:13:33.054Z,15.40
2022-12-11T11:16:12.239Z,17.10
2022-12-11T11:18:42.026Z,18.23
2022-12-11T11:21:30.070Z,16.25
2022-12-11T11:24:06.545Z,17.67
2022-12-11T11:39:26.251Z,16.52
2022-12-11T12:03:21.852Z,15.40
2022-12-11T12:06:58.576Z,16.15
2022-12-11T14:55:12.849Z,13.82
2022-12-11T14:57:57.274Z,12.15
2022-12-11T17:29:37.311Z,18.02
2022-12-11T17:51:20.855Z,21.30
2022-12-11T17:53:52.849Z,21.88
2022-12-11T19:09:32.822Z,20.85
2022-12-11T19:22:54.915Z,20.48
2022-12-11T19:39:08.358Z,18.88
2022-12-11T19:52:22.118Z,17.63
2022-12-11T19:54:48.773Z,18.00
2022-12-11T19:57:15.387Z,16.33
2022-12-11T19:59:50.310Z,16.10
2022-12-11T20:02:20.740Z,15.65
2022-12-11T20:04:50.828Z,15.43
2022-12-11T20:07:18.001Z,15.77
2022-12-11T20:09:52.596Z,14.40
2022-12-11T20:12:19.363Z,16.23
2022-12-11T20:14:48.482Z,16.42
2022-12-11T20:17:15.523Z,17.75
2022-12-11T20:19:42.821Z,17.58
2022-12-11T20:22:10.246Z,17.60
2022-12-11T20:24:37.762Z,20.33
2022-12-11T20:27:05.073Z,17.50
2022-12-11T20:29:34.188Z,18.50
2022-12-11T20:32:01.005Z,19.27
2022-12-11T20:34:28.020Z,18.75
2022-12-11T20:36:55.730Z,19.02
2022-12-11T20:39:22.629Z,20.50
2022-12-11T20:41:49.379Z,19.50
2022-12-11T20:44:19.603Z,21.25
2022-12-11T20:46:50.897Z,20.52
2022-12-11T20:49:17.664Z,19.88
2022-12-11T20:51:44.418Z,19.15
2022-12-11T20:54:11.360Z,18.77
2022-12-11T20:56:38.517Z,19.30
2022-12-11T20:59:05.742Z,19.13
2022-12-11T21:01:34.795Z,18.23
2022-12-11T21:04:02.522Z,18.70
2022-12-11T21:06:35.438Z,17.83
2022-12-11T21:09:15.076Z,18.33
2022-12-11T21:11:45.211Z,17.92
2022-12-11T21:14:12.092Z,18.23
2022-12-11T21:16:39.374Z,18.77
2022-12-11T21:19:12.385Z,16.02
2022-12-11T21:21:45.147Z,15.77
2022-12-11T21:24:27.563Z,15.32
2022-12-11T21:26:58.045Z,16.02
2022-12-11T21:29:29.371Z,17.40
2022-12-11T21:31:56.861Z,16.38
2022-12-11T21:34:25.695Z,16.33
2022-12-11T21:36:56.930Z,16.85
2022-12-11T21:39:26.611Z,16.92
2022-12-11T21:41:53.375Z,17.95
2022-12-11T21:47:07.019Z,19.20
2022-12-11T21:49:37.640Z,18.83
2022-12-11T21:52:05.185Z,17.38
2022-12-11T21:54:31.771Z,16.83
2022-12-11T21:56:58.411Z,17.15
2022-12-11T21:59:25.099Z,16.77
2022-12-11T22:01:52.029Z,17.02
2022-12-11T22:04:22.037Z,18.77
2022-12-11T22:06:48.802Z,19.98
2022-12-11T22:09:17.983Z,20.45
2022-12-11T22:11:52.583Z,20.55
2022-12-11T22:14:23.310Z,20.88
2022-12-11T22:16:50.237Z,21.88
2022-12-11T22:19:27.842Z,22.33
2022-12-11T22:21:58.915Z,22.42
2022-12-11T22:24:25.597Z,20.52
2022-12-11T22:26:52.225Z,21.40
2022-12-11T22:29:19.181Z,21.52
2022-12-11T22:31:48.548Z,22.45
2022-12-11T22:34:15.302Z,20.30
2022-12-11T22:36:42.281Z,22.58
2022-12-11T22:39:08.989Z,20.08
2022-12-11T22:41:41.777Z,19.70
2022-12-11T22:44:21.659Z,20.38
2022-12-11T22:46:50.496Z,20.48
2022-12-11T22:49:22.471Z,22.70
2022-12-11T22:51:49.439Z,20.35
2022-12-11T22:54:16.746Z,22.15
2022-12-11T22:56:52.523Z,21.27
2022-12-11T22:59:22.017Z,22.48
2022-12-11T23:01:49.112Z,21.25
2022-12-11T23:04:15.909Z,20.60
2022-12-11T23:06:42.555Z,21.38
2022-12-11T23:09:10.965Z,21.52
2022-12-11T23:11:39.934Z,22.05
2022-12-11T23:14:17.104Z,21.45
2022-12-11T23:16:44.471Z,21.17
2022-12-11T23:19:13.267Z,20.00
2022-12-11T23:21:40.653Z,20.33
2022-12-11T23:24:08.655Z,20.92
2022-12-11T23:26:35.845Z,20.02
2022-12-11T23:29:05.252Z,21.05
2022-12-11T23:31:36.119Z,20.05
2022-12-11T23:34:03.153Z,20.42
2022-12-11T23:36:39.335Z,21.85
2022-12-11T23:39:06.524Z,21.10
2022-12-11T23:41:36.245Z,21.80
2022-12-11T23:44:03.663Z,22.38
2022-12-11T23:46:30.766Z,21.75
2022-12-11T23:48:57.486Z,21.63
2022-12-11T23:51:25.591Z,23.10
2022-12-11T23:53:53.262Z,20.38
2022-12-11T23:56:27.814Z,21.63
2022-12-11T23:58:56.116Z,21.00
